createdAt,value
2018-08-28T00:01:24.721Z,17.51
2018-08-28T00:03:53.902Z,17.50
2018-08-28T00:06:22.474Z,17.45
2018-08-28T00:08:51.276Z,17.46
2018-08-28T00:11:19.677Z,17.42
2018-08-28T00:13:48.249Z,17.42
2018-08-28T00:16:16.941Z,17.42
2018-08-28T00:18:45.339Z,17.40
2018-08-28T00:21:13.769Z,17.41
2018-08-28T00:23:42.177Z,17.41
2018-08-28T00:26:10.677Z,17.45
2018-08-28T00:28:39.078Z,17.40
2018-08-28T00:31:07.599Z,17.40
2018-08-28T00:33:36.053Z,17.31
2018-08-28T00:36:04.477Z,17.27
2018-08-28T00:38:32.872Z,17.24
2018-08-28T00:41:01.349Z,17.14
2018-08-28T00:43:29.725Z,17.05
2018-08-28T00:45:58.233Z,17.19
2018-08-28T00:48:26.658Z,17.23
2018-08-28T00:50:55.199Z,17.14
2018-08-28T00:53:23.589Z,16.99
2018-08-28T00:55:52.014Z,17.02
2018-08-28T00:58:20.358Z,16.98
2018-08-28T01:00:48.753Z,16.96
2018-08-28T01:03:17.109Z,16.91
2018-08-28T01:05:45.519Z,17.05
2018-08-28T01:08:13.874Z,17.17
2018-08-28T01:10:48.662Z,17.07
2018-08-28T01:13:17.063Z,17.12
2018-08-28T01:15:45.525Z,17.06
2018-08-28T01:18:13.898Z,17.00
2018-08-28T01:20:42.285Z,17.10
2018-08-28T01:23:10.653Z,17.00
2018-08-28T01:25:39.005Z,17.10
2018-08-28T01:28:07.423Z,17.07
2018-08-28T01:30:36.125Z,17.04
2018-08-28T01:33:06.494Z,17.01
2018-08-28T01:35:35.221Z,17.08
2018-08-28T01:38:03.781Z,17.11
2018-08-28T01:40:32.196Z,17.07
2018-08-28T01:43:00.900Z,17.08
2018-08-28T01:45:29.574Z,16.99
2018-08-28T01:47:57.930Z,17.07
2018-08-28T01:50:26.318Z,17.30
2018-08-28T01:52:54.853Z,17.20
2018-08-28T01:55:23.678Z,17.04
2018-08-28T01:57:52.054Z,16.91
2018-08-28T02:00:20.436Z,16.77
2018-08-28T02:02:48.790Z,16.66
2018-08-28T02:05:17.255Z,16.57
2018-08-28T02:07:45.685Z,16.60
2018-08-28T02:10:14.037Z,16.67
2018-08-28T02:12:42.376Z,16.59
2018-08-28T02:15:10.784Z,16.42
2018-08-28T02:17:39.463Z,16.16
2018-08-28T02:20:07.898Z,15.96
2018-08-28T02:22:36.321Z,15.78
2018-08-28T02:25:05.402Z,15.67
2018-08-28T02:27:33.777Z,15.50
2018-08-28T02:30:02.198Z,15.43
2018-08-28T02:32:30.738Z,15.31
2018-08-28T02:34:59.149Z,15.14
2018-08-28T02:37:27.864Z,15.09
2018-08-28T02:39:56.674Z,15.05
2018-08-28T02:42:25.034Z,15.02
2018-08-28T02:44:53.637Z,14.96
2018-08-28T02:47:22.009Z,14.93
2018-08-28T02:49:50.394Z,14.90
2018-08-28T02:52:18.761Z,14.96
2018-08-28T02:54:47.231Z,14.91
2018-08-28T02:57:15.638Z,14.92
2018-08-28T02:59:44.057Z,14.94
2018-08-28T03:02:12.469Z,14.91
2018-08-28T03:04:40.893Z,14.91
2018-08-28T03:07:09.370Z,14.93
2018-08-28T03:09:37.778Z,14.93
2018-08-28T03:12:06.190Z,14.96
2018-08-28T03:14:34.630Z,15.04
2018-08-28T03:17:03.106Z,15.11
2018-08-28T03:19:31.557Z,15.13
2018-08-28T03:21:59.971Z,15.23
2018-08-28T03:24:28.389Z,15.26
2018-08-28T03:26:56.770Z,15.31
2018-08-28T03:29:25.154Z,15.35
2018-08-28T03:31:53.582Z,15.45
2018-08-28T03:34:21.977Z,15.49
2018-08-28T03:36:50.466Z,15.53
2018-08-28T03:39:18.878Z,15.57
2018-08-28T03:41:47.297Z,15.56
2018-08-28T03:44:15.692Z,15.53
2018-08-28T03:46:44.098Z,15.53
2018-08-28T03:49:12.556Z,15.49
2018-08-28T03:51:40.950Z,15.50
2018-08-28T03:54:09.390Z,15.46
2018-08-28T03:56:37.845Z,15.47
2018-08-28T03:59:06.223Z,15.38
2018-08-28T04:01:34.620Z,15.38
2018-08-28T04:04:03.032Z,15.37
2018-08-28T04:06:31.480Z,15.25
2018-08-28T04:08:59.912Z,15.19
2018-08-28T04:11:28.331Z,15.14
2018-08-28T04:13:56.721Z,15.12
2018-08-28T04:16:25.118Z,14.97
2018-08-28T04:18:53.556Z,14.87
2018-08-28T04:21:21.945Z,14.80
2018-08-28T04:23:50.353Z,14.75
2018-08-28T04:26:18.809Z,14.76
2018-08-28T04:28:47.339Z,14.70
2018-08-28T04:31:15.772Z,14.59
2018-08-28T04:33:44.180Z,14.44
2018-08-28T04:36:12.578Z,14.38
2018-08-28T04:38:41.009Z,14.35
2018-08-28T04:41:09.414Z,14.27
2018-08-28T04:43:37.858Z,14.25
2018-08-28T04:46:06.357Z,14.23
2018-08-28T04:48:35.506Z,14.24
2018-08-28T04:51:03.925Z,14.25
2018-08-28T04:53:32.370Z,14.15
2018-08-28T04:56:00.783Z,14.10
2018-08-28T04:58:29.205Z,14.12
2018-08-28T05:00:57.604Z,14.15
2018-08-28T05:03:26.041Z,14.13
2018-08-28T05:05:54.454Z,14.12
2018-08-28T05:08:22.841Z,14.15
2018-08-28T05:10:51.249Z,14.16
2018-08-28T05:13:20.581Z,14.22
2018-08-28T05:15:49.651Z,14.25
2018-08-28T05:18:18.304Z,14.31
2018-08-28T05:20:47.141Z,14.39
2018-08-28T05:23:15.958Z,14.41
2018-08-28T05:25:44.741Z,14.39
2018-08-28T05:28:13.511Z,14.42
2018-08-28T05:30:42.318Z,14.51
2018-08-28T05:33:11.018Z,14.61
2018-08-28T05:35:39.806Z,14.60
2018-08-28T05:38:08.607Z,14.64
2018-08-28T05:40:37.326Z,14.78
2018-08-28T05:43:06.049Z,14.80
2018-08-28T05:45:34.786Z,14.83
2018-08-28T05:48:03.760Z,14.96
2018-08-28T05:50:32.434Z,14.99
2018-08-28T05:53:01.160Z,15.05
2018-08-28T05:55:29.874Z,15.16
2018-08-28T05:57:58.642Z,15.29
2018-08-28T06:00:27.346Z,15.34
2018-08-28T06:02:56.143Z,15.41
2018-08-28T06:05:25.021Z,15.48
2018-08-28T06:07:54.071Z,15.55
2018-08-28T06:10:22.942Z,15.71
2018-08-28T06:12:51.667Z,15.77
2018-08-28T06:15:20.419Z,15.84
2018-08-28T06:17:49.178Z,16.04
2018-08-28T06:20:18.047Z,16.09
2018-08-28T06:22:46.755Z,16.21
2018-08-28T06:25:15.538Z,16.25
2018-08-28T06:27:44.339Z,16.43
2018-08-28T06:30:13.130Z,16.60
2018-08-28T06:32:41.939Z,16.82
2018-08-28T06:35:10.680Z,17.07
2018-08-28T06:37:39.475Z,17.21
2018-08-28T06:40:08.234Z,17.32
2018-08-28T06:42:37.067Z,17.50
2018-08-28T06:45:05.825Z,17.59
2018-08-28T06:47:34.479Z,17.80
2018-08-28T06:50:02.985Z,17.90
2018-08-28T06:52:31.703Z,18.09
2018-08-28T06:55:00.429Z,18.22
2018-08-28T06:57:29.167Z,18.39
2018-08-28T06:59:59.234Z,18.35
2018-08-28T07:02:28.162Z,18.39
2018-08-28T07:05:09.405Z,18.35
2018-08-28T07:07:41.771Z,18.49
2018-08-28T07:10:10.519Z,18.82
2018-08-28T07:12:39.177Z,19.10
2018-08-28T07:15:08.936Z,19.14
2018-08-28T07:17:37.958Z,19.09
2018-08-28T07:20:06.550Z,19.24
2018-08-28T07:22:34.990Z,19.50
2018-08-28T07:25:03.410Z,19.60
2018-08-28T07:27:31.865Z,19.70
2018-08-28T07:30:00.293Z,20.02
2018-08-28T07:32:28.730Z,20.09
2018-08-28T07:34:57.170Z,20.07
2018-08-28T07:37:25.643Z,20.18
2018-08-28T07:39:54.085Z,19.98
2018-08-28T07:42:22.561Z,19.72
2018-08-28T07:44:50.980Z,19.96
2018-08-28T07:47:19.457Z,20.02
2018-08-28T07:49:48.248Z,20.08
2018-08-28T07:52:16.974Z,20.45
2018-08-28T07:54:45.700Z,20.54
2018-08-28T07:57:14.511Z,20.74
2018-08-28T07:59:43.022Z,20.62
2018-08-28T08:02:11.673Z,20.82
2018-08-28T08:04:40.040Z,21.03
2018-08-28T08:07:08.529Z,20.82
2018-08-28T08:09:36.878Z,20.72
2018-08-28T08:12:05.324Z,20.80
2018-08-28T08:14:33.733Z,20.66
2018-08-28T08:17:02.160Z,20.90
2018-08-28T08:19:30.558Z,21.04
2018-08-28T08:21:58.988Z,21.05
2018-08-28T08:24:27.379Z,21.09
2018-08-28T08:26:55.797Z,21.25
2018-08-28T08:29:24.165Z,21.46
2018-08-28T08:31:52.509Z,20.93
2018-08-28T08:34:20.966Z,20.70
2018-08-28T08:36:49.394Z,21.04
2018-08-28T08:39:17.770Z,21.14
2018-08-28T08:41:46.176Z,21.27
2018-08-28T08:44:14.581Z,21.48
2018-08-28T08:46:42.968Z,21.10
2018-08-28T08:49:11.385Z,21.38
2018-08-28T08:51:39.778Z,21.03
2018-08-28T08:54:08.206Z,21.14
2018-08-28T08:56:36.645Z,21.53
2018-08-28T08:59:05.085Z,21.39
2018-08-28T09:01:33.565Z,21.68
2018-08-28T09:04:02.130Z,21.48
2018-08-28T09:06:30.506Z,21.68
2018-08-28T09:08:58.909Z,21.36
2018-08-28T09:11:27.311Z,21.68
2018-08-28T09:13:55.772Z,21.89
2018-08-28T09:16:24.130Z,21.91
2018-08-28T09:18:52.601Z,22.09
2018-08-28T09:21:20.981Z,22.18
2018-08-28T09:23:49.408Z,22.52
2018-08-28T09:26:17.925Z,22.09
2018-08-28T09:28:46.333Z,22.67
2018-08-28T09:31:14.763Z,22.90
2018-08-28T09:33:43.218Z,23.12
2018-08-28T09:36:11.627Z,23.30
2018-08-28T09:38:40.032Z,23.19
2018-08-28T09:41:08.489Z,23.18
2018-08-28T09:43:37.483Z,23.36
2018-08-28T09:46:05.982Z,23.16
2018-08-28T09:48:34.443Z,23.34
2018-08-28T09:51:02.844Z,23.80
2018-08-28T09:53:31.201Z,23.46
2018-08-28T09:55:59.586Z,23.00
2018-08-28T09:58:27.958Z,23.27
2018-08-28T10:01:01.657Z,23.54
2018-08-28T10:03:30.029Z,23.42
2018-08-28T10:05:58.418Z,23.37
2018-08-28T10:08:26.790Z,23.49
2018-08-28T10:10:55.472Z,23.72
2018-08-28T10:13:29.474Z,23.66
2018-08-28T10:15:58.103Z,23.69
2018-08-28T10:18:26.514Z,23.48
2018-08-28T10:20:54.897Z,23.34
2018-08-28T10:23:23.271Z,23.41
2018-08-28T10:25:51.694Z,23.54
2018-08-28T10:28:20.093Z,22.78
2018-08-28T10:30:48.513Z,22.42
2018-08-28T10:33:16.960Z,22.11
2018-08-28T10:38:12.755Z,22.11
2018-08-28T10:40:41.094Z,22.37
2018-08-28T10:43:09.456Z,22.54
2018-08-28T10:45:37.849Z,22.80
2018-08-28T10:48:06.294Z,23.05
2018-08-28T10:50:34.692Z,23.20
2018-08-28T10:53:03.098Z,23.01
2018-08-28T10:55:31.525Z,22.57
2018-08-28T10:57:59.974Z,22.96
2018-08-28T11:00:28.399Z,23.09
2018-08-28T11:02:56.797Z,23.02
2018-08-28T11:05:25.214Z,22.95
2018-08-28T11:07:53.621Z,23.00
2018-08-28T11:10:22.049Z,22.58
2018-08-28T11:12:50.445Z,22.28
2018-08-28T11:15:18.853Z,22.63
2018-08-28T11:17:47.268Z,22.63
2018-08-28T11:20:15.734Z,22.40
2018-08-28T11:22:44.154Z,22.59
2018-08-28T11:25:12.590Z,22.57
2018-08-28T11:27:40.993Z,22.60
2018-08-28T11:30:09.509Z,22.75
2018-08-28T11:32:37.937Z,22.80
2018-08-28T11:35:06.469Z,23.09
2018-08-28T11:37:34.894Z,23.27
2018-08-28T11:40:03.325Z,23.42
2018-08-28T11:42:31.761Z,23.31
2018-08-28T11:45:00.161Z,23.69
2018-08-28T11:47:28.585Z,23.84
2018-08-28T11:49:57.025Z,23.68
2018-08-28T11:52:26.536Z,24.13
2018-08-28T11:54:54.990Z,23.63
2018-08-28T11:57:24.154Z,23.90
2018-08-28T11:59:52.648Z,23.68
2018-08-28T12:02:21.142Z,23.41
2018-08-28T12:04:50.426Z,23.70
2018-08-28T12:07:18.984Z,23.73
2018-08-28T12:09:48.221Z,23.76
2018-08-28T12:12:16.662Z,23.97
2018-08-28T12:14:45.082Z,24.03
2018-08-28T12:17:13.724Z,24.25
2018-08-28T12:19:42.198Z,24.34
2018-08-28T12:22:10.899Z,24.49
2018-08-28T12:24:39.375Z,24.49
2018-08-28T12:27:07.813Z,24.90
2018-08-28T12:29:36.241Z,24.95
2018-08-28T12:32:04.813Z,25.26
2018-08-28T12:34:33.241Z,24.58
2018-08-28T12:37:01.752Z,24.45
2018-08-28T12:39:30.166Z,24.69
2018-08-28T12:41:58.708Z,25.07
2018-08-28T12:44:27.233Z,25.63
2018-08-28T12:46:55.675Z,25.19
2018-08-28T12:49:24.086Z,25.05
2018-08-28T12:51:52.546Z,25.51
2018-08-28T12:54:21.044Z,25.94
2018-08-28T12:56:49.428Z,25.91
2018-08-28T12:59:17.824Z,25.62
2018-08-28T13:01:46.226Z,25.85
2018-08-28T13:04:14.610Z,26.18
2018-08-28T13:06:43.001Z,26.08
2018-08-28T13:09:11.381Z,26.23
2018-08-28T13:11:39.801Z,26.16
2018-08-28T13:14:08.182Z,26.20
2018-08-28T13:16:36.536Z,26.13
2018-08-28T13:19:05.141Z,26.33
2018-08-28T13:21:33.500Z,27.37
2018-08-28T13:24:01.941Z,27.64
2018-08-28T13:26:30.315Z,28.61
2018-08-28T13:28:58.680Z,30.04
2018-08-28T13:31:27.037Z,30.33
2018-08-28T13:33:55.418Z,31.59
2018-08-28T13:36:23.765Z,30.99
2018-08-28T13:38:52.195Z,31.03
2018-08-28T13:41:20.577Z,32.30
2018-08-28T13:43:49.001Z,32.34
2018-08-28T13:46:17.395Z,32.20
2018-08-28T13:48:45.856Z,32.00
2018-08-28T13:51:14.293Z,32.16
2018-08-28T13:53:42.741Z,32.22
2018-08-28T13:56:11.122Z,32.45
2018-08-28T13:58:39.504Z,31.44
2018-08-28T14:01:07.884Z,31.80
2018-08-28T14:03:36.289Z,31.81
2018-08-28T14:06:04.674Z,31.71
2018-08-28T14:08:33.081Z,32.21
2018-08-28T14:11:01.449Z,31.72
2018-08-28T14:13:29.850Z,31.60
2018-08-28T14:15:58.268Z,32.61
2018-08-28T14:18:26.673Z,32.46
2018-08-28T14:20:55.056Z,32.22
2018-08-28T14:23:23.477Z,32.35
2018-08-28T14:25:52.479Z,32.35
2018-08-28T14:28:20.954Z,32.90
2018-08-28T14:30:49.357Z,33.43
2018-08-28T14:33:17.768Z,32.81
2018-08-28T14:35:46.329Z,32.78
2018-08-28T14:38:14.551Z,33.27
2018-08-28T14:40:42.943Z,32.65
2018-08-28T14:43:11.353Z,32.34
2018-08-28T14:45:39.761Z,31.71
2018-08-28T14:48:08.156Z,32.35
2018-08-28T14:50:36.580Z,32.18
2018-08-28T14:53:04.981Z,33.13
2018-08-28T14:55:33.443Z,31.41
2018-08-28T14:58:01.879Z,31.64
2018-08-28T15:00:30.328Z,31.97
2018-08-28T15:02:58.751Z,31.72
2018-08-28T15:05:27.185Z,32.98
2018-08-28T15:07:55.652Z,32.66
2018-08-28T15:10:27.546Z,32.44
2018-08-28T15:12:55.977Z,32.64
2018-08-28T15:15:24.436Z,33.46
2018-08-28T15:17:52.837Z,33.64
2018-08-28T15:20:21.266Z,33.11
2018-08-28T15:22:49.706Z,32.58
2018-08-28T15:25:18.181Z,32.63
2018-08-28T15:27:46.594Z,32.79
2018-08-28T15:30:15.025Z,32.62
2018-08-28T15:32:43.506Z,31.86
2018-08-28T15:35:11.989Z,32.30
2018-08-28T15:37:40.390Z,33.11
2018-08-28T15:40:08.869Z,32.16
2018-08-28T15:42:37.254Z,32.22
2018-08-28T15:45:05.929Z,33.09
2018-08-28T15:47:34.325Z,32.72
2018-08-28T15:50:02.769Z,31.32
2018-08-28T15:52:31.201Z,31.01
2018-08-28T15:54:59.674Z,31.13
2018-08-28T15:57:28.154Z,31.30
2018-08-28T15:59:56.590Z,31.71
2018-08-28T16:02:25.018Z,31.16
2018-08-28T16:05:00.685Z,30.94
2018-08-28T16:07:29.106Z,30.79
2018-08-28T16:09:57.531Z,30.51
2018-08-28T16:12:26.058Z,30.80
2018-08-28T16:14:59.610Z,30.36
2018-08-28T16:17:28.033Z,30.51
2018-08-28T16:19:56.485Z,30.19
2018-08-28T16:22:29.101Z,30.18
2018-08-28T16:24:57.541Z,29.92
2018-08-28T16:27:25.995Z,29.88
2018-08-28T16:29:54.460Z,30.01
2018-08-28T16:32:22.895Z,29.62
2018-08-28T16:34:51.329Z,29.11
2018-08-28T16:37:22.644Z,29.20
2018-08-28T16:39:51.067Z,28.79
2018-08-28T16:42:19.566Z,27.98
2018-08-28T16:44:47.989Z,26.94
2018-08-28T16:47:16.433Z,26.22
2018-08-28T16:49:44.838Z,25.81
2018-08-28T16:52:13.257Z,25.53
2018-08-28T16:54:41.822Z,25.35
2018-08-28T16:57:10.294Z,25.29
2018-08-28T16:59:38.987Z,25.06
2018-08-28T17:02:07.462Z,25.01
2018-08-28T17:04:35.894Z,24.86
2018-08-28T17:07:04.373Z,24.78
2018-08-28T17:09:32.844Z,24.54
2018-08-28T17:12:01.266Z,24.61
2018-08-28T17:14:29.673Z,24.50
2018-08-28T17:16:58.126Z,24.41
2018-08-28T17:19:27.022Z,24.28
2018-08-28T17:21:55.449Z,24.20
2018-08-28T17:24:23.872Z,24.10
2018-08-28T17:26:52.515Z,24.00
2018-08-28T17:29:21.225Z,23.95
2018-08-28T17:31:49.705Z,23.86
2018-08-28T17:34:18.106Z,23.71
2018-08-28T17:36:46.644Z,23.61
2018-08-28T17:39:15.034Z,23.46
2018-08-28T17:41:43.463Z,23.40
2018-08-28T17:44:12.347Z,23.31
2018-08-28T17:46:40.826Z,23.22
2018-08-28T17:49:09.289Z,23.24
2018-08-28T17:51:37.697Z,23.14
2018-08-28T17:54:06.320Z,23.03
2018-08-28T17:56:34.749Z,22.86
2018-08-28T17:59:03.269Z,22.82
2018-08-28T18:01:31.715Z,22.79
2018-08-28T18:04:00.361Z,22.59
2018-08-28T18:06:28.792Z,22.46
2018-08-28T18:08:57.213Z,22.26
2018-08-28T18:11:25.657Z,22.04
2018-08-28T18:13:54.112Z,21.92
2018-08-28T18:16:22.587Z,21.78
2018-08-28T18:18:51.017Z,21.65
2018-08-28T18:21:19.845Z,21.65
2018-08-28T18:23:48.410Z,21.59
2018-08-28T18:26:17.013Z,21.41
2018-08-28T18:28:45.635Z,21.08
2018-08-28T18:31:14.154Z,20.77
2018-08-28T18:33:42.822Z,20.67
2018-08-28T18:36:11.331Z,20.47
2018-08-28T18:38:39.879Z,20.28
2018-08-28T18:41:08.535Z,20.17
2018-08-28T18:43:37.067Z,20.14
2018-08-28T18:46:05.606Z,20.20
2018-08-28T18:48:34.672Z,20.10
2018-08-28T18:51:03.242Z,19.84
2018-08-28T18:53:39.935Z,19.71
2018-08-28T18:56:08.526Z,19.59
2018-08-28T18:58:36.985Z,19.37
2018-08-28T19:01:06.198Z,19.28
2018-08-28T19:03:34.958Z,19.22
2018-08-28T19:06:04.048Z,19.26
2018-08-28T19:08:33.183Z,19.35
2018-08-28T19:11:01.830Z,19.25
2018-08-28T19:13:31.393Z,19.12
2018-08-28T19:16:00.587Z,19.07
2018-08-28T19:18:29.244Z,19.02
2018-08-28T19:21:04.416Z,18.95
2018-08-28T19:23:33.081Z,18.91
2018-08-28T19:26:02.856Z,18.88
2018-08-28T19:28:31.575Z,18.83
2018-08-28T19:31:00.838Z,18.72
2018-08-28T19:33:29.989Z,18.75
2018-08-28T19:35:59.628Z,18.72
2018-08-28T19:38:28.428Z,18.71
2018-08-28T19:40:57.077Z,18.73
2018-08-28T19:43:26.364Z,18.64
2018-08-28T19:45:54.938Z,18.54
2018-08-28T19:48:23.642Z,18.44
2018-08-28T19:50:52.241Z,18.48
2018-08-28T19:53:21.438Z,18.47
2018-08-28T19:55:50.150Z,18.47
2018-08-28T19:58:18.996Z,18.40
2018-08-28T20:00:48.942Z,18.28
2018-08-28T20:03:17.618Z,18.20
2018-08-28T20:05:46.536Z,18.16
2018-08-28T20:08:16.592Z,18.15
2018-08-28T20:10:45.182Z,18.06
2018-08-28T20:13:14.076Z,18.03
2018-08-28T20:15:43.735Z,18.04
2018-08-28T20:18:12.603Z,18.01
2018-08-28T20:20:42.671Z,17.96
2018-08-28T20:23:13.455Z,17.93
2018-08-28T20:25:45.712Z,17.92
2018-08-28T20:28:16.659Z,17.93
2018-08-28T20:30:45.465Z,17.90
2018-08-28T20:33:14.151Z,17.85
2018-08-28T20:35:43.485Z,17.90
2018-08-28T20:38:12.250Z,17.85
2018-08-28T20:40:42.928Z,17.79
2018-08-28T20:43:11.930Z,17.79
2018-08-28T20:45:40.527Z,17.72
2018-08-28T20:48:11.099Z,17.70
2018-08-28T20:50:39.750Z,17.75
2018-08-28T20:53:08.397Z,17.63
2018-08-28T20:55:37.383Z,17.66
2018-08-28T20:58:07.330Z,17.60
2018-08-28T21:00:36.843Z,17.51
2018-08-28T21:03:07.158Z,17.49
2018-08-28T21:05:36.409Z,17.45
2018-08-28T21:08:05.449Z,17.39
2018-08-28T21:10:34.078Z,17.38
2018-08-28T21:13:03.289Z,17.34
2018-08-28T21:15:31.706Z,17.26
2018-08-28T21:18:00.550Z,17.18
2018-08-28T21:20:30.453Z,17.20
2018-08-28T21:22:59.496Z,17.19
2018-08-28T21:25:29.002Z,17.16
2018-08-28T21:27:57.656Z,17.23
2018-08-28T21:30:26.479Z,17.15
2018-08-28T21:32:55.029Z,17.13
2018-08-28T21:35:23.945Z,17.17
2018-08-28T21:37:58.880Z,17.11
2018-08-28T21:40:27.357Z,16.99
2018-08-28T21:42:55.898Z,16.88
2018-08-28T21:45:24.492Z,16.88
2018-08-28T21:47:52.955Z,16.83
2018-08-28T21:50:21.501Z,16.81
2018-08-28T21:52:50.277Z,16.91
2018-08-28T21:55:19.169Z,16.99
2018-08-28T21:57:47.686Z,17.03
2018-08-28T22:00:16.226Z,17.13
2018-08-28T22:02:44.862Z,17.19
2018-08-28T22:05:13.401Z,17.10
2018-08-28T22:07:42.945Z,17.05
2018-08-28T22:10:11.536Z,16.82
2018-08-28T22:12:40.097Z,16.84
2018-08-28T22:15:12.825Z,16.63
2018-08-28T22:17:41.749Z,16.50
2018-08-28T22:20:10.625Z,16.47
2018-08-28T22:22:39.113Z,16.55
2018-08-28T22:25:07.695Z,16.47
2018-08-28T22:27:36.281Z,16.41
2018-08-28T22:30:05.224Z,16.36
2018-08-28T22:32:33.620Z,16.32
2018-08-28T22:35:02.229Z,16.35
2018-08-28T22:37:30.872Z,16.38
2018-08-28T22:39:59.232Z,16.36
2018-08-28T22:48:12.579Z,16.20
2018-08-28T22:50:40.957Z,16.12
2018-08-28T22:53:09.349Z,15.87
2018-08-28T22:55:37.746Z,15.83
2018-08-28T22:58:06.210Z,15.82
2018-08-28T23:00:34.621Z,15.74
2018-08-28T23:03:02.977Z,15.69
2018-08-28T23:05:31.339Z,15.62
2018-08-28T23:07:59.721Z,15.64
2018-08-28T23:10:28.100Z,15.57
2018-08-28T23:12:56.496Z,15.61
2018-08-28T23:15:24.901Z,15.41
2018-08-28T23:17:53.274Z,15.21
2018-08-28T23:20:21.633Z,15.16
2018-08-28T23:22:49.993Z,15.25
2018-08-28T23:25:18.365Z,15.26
2018-08-28T23:27:46.777Z,15.31
2018-08-28T23:30:15.126Z,15.26
2018-08-28T23:32:43.496Z,15.22
2018-08-28T23:35:11.972Z,15.19
2018-08-28T23:37:40.309Z,15.17
2018-08-28T23:40:08.712Z,15.13
2018-08-28T23:42:37.071Z,14.94
2018-08-28T23:45:05.681Z,14.79
2018-08-28T23:47:34.070Z,14.84
2018-08-28T23:50:02.448Z,14.89
2018-08-28T23:52:30.827Z,14.93
2018-08-28T23:54:59.209Z,14.88
2018-08-28T23:57:27.573Z,14.90
2018-08-28T23:59:55.947Z,14.93
